Orion Explorer — LNDT — position and weather

sailwx.info

Track history (hours):
 
Tides and Currents Weather Stations Pressure Air Temp Water Temp Dewpoint Dewpoint Depression Visibility Wind Speed Wind Dir Waves Ship Positions

Orion Explorer

Last reported at 2018-Feb-24 13:30 UTC. Time now 2018-Feb-24 13:56 UTC.
Position N 70°13' E 021°08'.

Length 59 m; draft 4.5 m.

Type: Cargo ship. MMSI: 259496000.

Date/timePositionNaut miles runAvg speedWind from/ knotsBaromVisibWave heightAir tempDewpointWater temp
2018-Feb-24 13:30N 70°13' E 021°08'510.8
2018-Feb-24 13:00N 70°17' E 021°20'611.1
2018-Feb-24 12:30N 70°21' E 021°32'510.5
2018-Feb-24 12:00N 70°24' E 021°44'611.0
2018-Feb-24 11:30N 70°21' E 021°60'611.2
2018-Feb-24 10:58N 70°19' E 022°15'511.5
2018-Feb-24 10:30N 70°16' E 022°29'611.5
2018-Feb-24 10:00N 70°15' E 022°46'3 5.6
2018-Feb-24 09:30N 70°15' E 022°54'1 1.6
2018-Feb-24 09:00N 70°14' E 022°55'511.0
2018-Feb-24 08:30N 70°14' E 023°11'2 4.1
2018-Feb-24 08:00N 70°14' E 023°17'0 0.0
2018-Feb-24 07:30N 70°14' E 023°17'0 0.0
2018-Feb-24 07:00N 70°14' E 023°17'0 0.0
2018-Feb-24 06:30N 70°14' E 023°17'1 2.2
2018-Feb-24 06:00N 70°14' E 023°20'0 0.1
2018-Feb-24 05:30N 70°14' E 023°20'3 6.7
2018-Feb-24 05:01N 70°17' E 023°19'510.6
2018-Feb-24 04:30N 70°21' E 023°28'510.2
2018-Feb-24 04:00N 70°25' E 023°38'510.4
2018-Feb-24 03:30N 70°29' E 023°48'510.8
2018-Feb-24 03:00N 70°32' E 024°02'610.7
2018-Feb-24 02:29N 70°37' E 024°10'510.7
2018-Feb-24 02:00N 70°42' E 024°11'610.7
2018-Feb-24 01:29N 70°48' E 024°12'510.6
2018-Feb-24 01:00N 70°52' E 024°18'511.0
2018-Feb-24 00:30N 70°57' E 024°25'510.6
2018-Feb-24 00:00N 71°02' E 024°35'611.5
2018-Feb-23 23:30N 71°00' E 024°51'611.2
2018-Feb-23 23:00N 70°59' E 025°08'510.9
2018-Feb-23 22:30N 70°58' E 025°25'611.2
2018-Feb-23 22:01N 70°55' E 025°39'510.5
2018-Feb-23 21:30N 70°54' E 025°55'510.3
2018-Feb-23 21:00N 70°49' E 025°53'610.8
2018-Feb-23 20:29N 70°46' E 025°39'1 1.3
2018-Feb-23 20:00N 70°45' E 025°38'1 1.5
2018-Feb-23 19:30N 70°46' E 025°39'610.8
2018-Feb-23 19:00N 70°49' E 025°53'510.3
2018-Feb-23 18:29N 70°54' E 025°54'610.8
2018-Feb-23 17:59N 70°59' E 025°45'0 0.2
2018-Feb-23 17:30N 70°59' E 025°45'2 3.8
2018-Feb-23 17:00N 70°57' E 025°45'510.0
2018-Feb-23 16:30N 70°56' E 025°30'611.4
2018-Feb-23 16:00N 70°59' E 025°15'510.8
2018-Feb-23 15:30N 70°59' E 024°59'510.6
2018-Feb-23 15:00N 71°01' E 024°42'4 7.8
2018-Feb-23 14:30N 70°59' E 024°31'510.8
2018-Feb-23 14:00N 70°54' E 024°31'5 9.2
2018-Feb-23 13:30N 70°50' E 024°27'0 0.0
2018-Feb-23 13:00N 70°50' E 024°27'0 0.6
2018-Feb-23 12:30N 70°50' E 024°27'4 8.2
2018-Feb-23 12:00N 70°53' E 024°20'510.0
2018-Feb-23 11:30N 70°50' E 024°06'510.6
2018-Feb-23 11:00N 70°48' E 023°52'510.7
2018-Feb-23 10:30N 70°45' E 023°38'510.6
2018-Feb-23 10:00N 70°40' E 023°34'2 4.7
2018-Feb-23 09:29N 70°38' E 023°39'0 0.0
2018-Feb-23 09:00N 70°38' E 023°39'0 0.0
2018-Feb-23 08:30N 70°38' E 023°39'4 7.4
2018-Feb-23 08:01N 70°38' E 023°28'510.8
2018-Feb-23 07:30N 70°36' E 023°13'611.6
2018-Feb-23 07:00N 70°32' E 023°00'611.4
2018-Feb-23 06:30N 70°30' E 022°44'611.0
2018-Feb-23 06:00N 70°28' E 022°29'510.4
2018-Feb-23 05:30N 70°27' E 022°13'510.9
2018-Feb-23 05:00N 70°25' E 021°58'511.0
2018-Feb-23 04:30N 70°24' E 021°42'611.0
2018-Feb-23 04:00N 70°20' E 021°30'611.2
2018-Feb-23 03:30N 70°16' E 021°18'5 9.8
2018-Feb-23 03:00N 70°12' E 021°10'510.9
2018-Feb-23 02:30N 70°08' E 021°20'510.9
2018-Feb-23 01:59N 70°04' E 021°32'610.8
2018-Feb-23 01:26N 70°01' E 021°46'4 9.6
2018-Feb-23 01:01N 69°57' E 021°53'0 0.0
2018-Feb-23 00:26N 69°57' E 021°53'0 0.0
2018-Feb-22 23:59N 69°57' E 021°53'1 1.4
2018-Feb-22 23:30N 69°58' E 021°51'510.6
2018-Feb-22 23:01N 69°60' E 021°37'510.4
2018-Feb-22 22:30N 70°02' E 021°23'2 4.5
2018-Feb-22 22:00N 70°03' E 021°17'0 0.0
2018-Feb-22 21:30N 70°03' E 021°17'0 0.0
2018-Feb-22 21:00N 70°03' E 021°17'5 9.0
2018-Feb-22 20:30N 69°59' E 021°07'510.8
2018-Feb-22 20:00N 69°56' E 020°55'4 7.7
2018-Feb-22 19:30N 69°53' E 020°46'0 0.3
2018-Feb-22 19:00N 69°54' E 020°46'2 4.6
2018-Feb-22 18:30N 69°52' E 020°42'0 0.0
2018-Feb-22 18:00N 69°52' E 020°42'2 4.6
2018-Feb-22 17:30N 69°50' E 020°44'1 1.1
2018-Feb-22 16:53N 69°49' E 020°43'2 2.0
2018-Feb-22 15:52N 69°48' E 020°38'3 8.1
2018-Feb-22 15:30N 69°48' E 020°30'510.6
2018-Feb-22 15:00N 69°53' E 020°25'510.6
2018-Feb-22 14:30N 69°58' E 020°20'5 9.4
2018-Feb-22 14:01N 69°57' E 020°07'510.3
2018-Feb-22 13:30N 69°54' E 019°55'510.7
2018-Feb-22 13:00N 69°51' E 019°42'510.6
2018-Feb-22 12:30N 69°49' E 019°28'510.8
2018-Feb-22 12:00N 69°46' E 019°13'510.4
2018-Feb-22 11:30N 69°43' E 019°03'510.7
2018-Feb-22 10:59N 69°38' E 018°56'510.8
2018-Feb-22 10:30N 69°34' E 018°46'510.6
2018-Feb-22 09:59N 69°32' E 018°32'510.6
2018-Feb-22 09:30N 69°30' E 018°18'510.3
2018-Feb-22 09:00N 69°28' E 018°04'0 0.2
2018-Feb-22 08:30N 69°28' E 018°04'0 0.0
2018-Feb-22 07:59N 69°28' E 018°04'3 6.3
2018-Feb-22 07:30N 69°25' E 018°07'510.5
2018-Feb-22 07:00N 69°20' E 018°04'5 9.8
2018-Feb-22 06:30N 69°16' E 017°58'5 9.7
2018-Feb-22 06:00N 69°11' E 018°01'510.3
2018-Feb-22 05:30N 69°09' E 017°48'510.5
2018-Feb-22 05:00N 69°07' E 017°34'510.3
2018-Feb-22 04:29N 69°04' E 017°22'510.5
2018-Feb-22 04:00N 68°60' E 017°13'510.5
2018-Feb-22 03:30N 68°56' E 017°02'510.5
2018-Feb-22 03:00N 68°53' E 016°51'510.6
2018-Feb-22 02:30N 68°50' E 016°39'3 5.3
2018-Feb-22 01:59N 68°48' E 016°34'0 0.0
2018-Feb-22 01:30N 68°48' E 016°34'0 0.0
2018-Feb-22 01:00N 68°48' E 016°34'0 0.6
2018-Feb-22 00:29N 68°48' E 016°34'4 7.7
2018-Feb-22 00:00N 68°52' E 016°30'510.2
2018-Feb-21 23:30N 68°55' E 016°20'510.0
2018-Feb-21 23:00N 68°57' E 016°07'510.5
2018-Feb-21 22:30N 68°59' E 015°53'510.4
2018-Feb-21 22:00N 68°58' E 015°39'510.1
2018-Feb-21 21:30N 68°53' E 015°33'510.6
2018-Feb-21 21:00N 68°49' E 015°26'510.7
2018-Feb-21 20:30N 68°43' E 015°25'5 9.7
2018-Feb-21 20:00N 68°39' E 015°22'510.5
2018-Feb-21 19:30N 68°36' E 015°10'5 9.7
2018-Feb-21 19:00N 68°35' E 014°57'0 0.3
2018-Feb-21 18:30N 68°34' E 014°57'0 0.0
2018-Feb-21 18:00N 68°34' E 014°57'0 0.0
2018-Feb-21 17:30N 68°34' E 014°57'0 0.0
2018-Feb-21 17:00N 68°34' E 014°57'0 0.0
2018-Feb-21 16:30N 68°34' E 014°57'0 0.0
2018-Feb-21 16:00N 68°34' E 014°57'5 9.8
2018-Feb-21 15:31N 68°36' E 015°10'611.0
2018-Feb-21 15:00N 68°39' E 015°22'5 9.4
2018-Feb-21 14:29N 68°44' E 015°25'510.9
2018-Feb-21 14:01N 68°49' E 015°27'610.9
2018-Feb-21 13:29N 68°54' E 015°34'5 9.4
2018-Feb-21 13:00N 68°58' E 015°40'510.0
2018-Feb-21 12:30N 68°60' E 015°54'510.9
2018-Feb-21 12:00N 69°03' E 016°06'610.9
2018-Feb-21 11:30N 69°06' E 016°20'511.0
2018-Feb-21 11:00N 69°08' E 016°33'510.9
2018-Feb-21 10:30N 69°11' E 016°46'510.8
2018-Feb-21 09:59N 69°15' E 016°57'2 3.4
2018-Feb-21 09:30N 69°15' E 017°02'0 0.0
2018-Feb-21 09:00N 69°15' E 017°02'0 0.0
2018-Feb-21 08:30N 69°15' E 017°02'0 0.0
2018-Feb-21 08:00N 69°15' E 017°02'4 6.9
2018-Feb-21 07:29N 69°14' E 016°52'510.8
2018-Feb-21 06:59N 69°08' E 016°48'511.1
2018-Feb-21 06:30N 69°03' E 016°45'510.4
2018-Feb-21 06:00N 69°00' E 016°57'510.9
2018-Feb-21 05:30N 69°00' E 017°12'510.6
2018-Feb-21 05:00N 69°04' E 017°22'510.8
2018-Feb-21 04:30N 69°07' E 017°34'2 4.9
2018-Feb-21 04:00N 69°09' E 017°39'0 0.4
2018-Feb-21 03:30N 69°09' E 017°39'510.7
2018-Feb-21 03:00N 69°04' E 017°34'4 8.5
2018-Feb-21 02:30N 69°00' E 017°27'0 0.0
2018-Feb-21 02:00N 69°00' E 017°27'0 0.0
2018-Feb-21 01:30N 69°00' E 017°27'4 9.1
2018-Feb-21 01:01N 68°56' E 017°26'5 9.3
2018-Feb-21 00:30N 68°51' E 017°28'510.6
2018-Feb-21 00:00N 68°48' E 017°18'510.8
2018-Feb-20 23:31N 68°43' E 017°09'0 0.3
2018-Feb-20 23:00N 68°43' E 017°09'2 5.0
2018-Feb-20 22:30N 68°44' E 017°02'3 5.4
2018-Feb-20 22:00N 68°44' E 016°54'0 0.0
2018-Feb-20 21:30N 68°44' E 016°54'2 4.4
2018-Feb-20 21:00N 68°43' E 016°49'510.2
2018-Feb-20 20:30N 68°48' E 016°46'510.5
2018-Feb-20 20:00N 68°53' E 016°45'3 5.7
2018-Feb-20 19:30N 68°56' E 016°42'0 0.6
2018-Feb-20 19:00N 68°56' E 016°42'1 1.2
2018-Feb-20 18:30N 68°56' E 016°43'1 1.1
2018-Feb-20 18:00N 68°56' E 016°42'4 8.0
2018-Feb-20 17:30N 68°53' E 016°36'5 9.5
2018-Feb-20 17:01N 68°54' E 016°23'510.0
2018-Feb-20 16:30N 68°57' E 016°12'510.3
2018-Feb-20 16:00N 68°58' E 015°59'510.4
2018-Feb-20 15:30N 68°59' E 015°44'5 9.5
2018-Feb-20 14:59N 68°55' E 015°35'510.4
2018-Feb-20 14:30N 68°51' E 015°29'510.6
2018-Feb-20 14:00N 68°45' E 015°26'611.5
2018-Feb-20 13:30N 68°40' E 015°26'2 4.1
2018-Feb-20 13:00N 68°38' E 015°29'0 0.0
2018-Feb-20 12:29N 68°38' E 015°29'0 0.2
2018-Feb-20 12:00N 68°38' E 015°29'5 9.4
2018-Feb-20 11:30N 68°36' E 015°17'510.5
2018-Feb-20 11:00N 68°34' E 015°03'2 4.6
2018-Feb-20 10:30N 68°34' E 014°57'0 0.0
2018-Feb-20 10:00N 68°34' E 014°57'0 0.0
2018-Feb-20 09:30N 68°34' E 014°57'0 0.0
2018-Feb-20 09:00N 68°34' E 014°57'0 0.0
2018-Feb-20 08:29N 68°34' E 014°57'0 0.0
2018-Feb-20 08:00N 68°34' E 014°57'0 0.0
2018-Feb-20 07:30N 68°34' E 014°57'0 0.0
2018-Feb-20 07:00N 68°34' E 014°57'0 0.0
2018-Feb-20 06:30N 68°34' E 014°57'0 0.0
2018-Feb-20 06:00N 68°34' E 014°57'0 0.0
2018-Feb-20 05:30N 68°34' E 014°57'0 0.0
2018-Feb-20 04:59N 68°34' E 014°57'0 0.0
2018-Feb-20 04:30N 68°34' E 014°57'0 0.0
2018-Feb-20 04:00N 68°34' E 014°57'0 0.0
2018-Feb-20 03:28N 68°34' E 014°57'0 0.0
2018-Feb-20 03:00N 68°34' E 014°57'0 0.0
2018-Feb-20 02:30N 68°34' E 014°57'0 0.0
2018-Feb-20 02:00N 68°34' E 014°57'0 0.0
2018-Feb-20 01:30N 68°34' E 014°57'0 0.0
2018-Feb-20 01:00N 68°34' E 014°57'0 0.0
2018-Feb-20 00:29N 68°34' E 014°57'0 0.0
2018-Feb-20 00:00N 68°34' E 014°57'0 0.0
2018-Feb-19 23:30N 68°34' E 014°57'0 0.0
2018-Feb-19 22:59N 68°34' E 014°57'0 0.0
2018-Feb-19 22:30N 68°34' E 014°57'0 0.0
2018-Feb-19 22:00N 68°34' E 014°57'0 0.0
2018-Feb-19 21:30N 68°34' E 014°57'0 0.0
2018-Feb-19 21:00N 68°34' E 014°57'0 0.0
2018-Feb-19 20:30N 68°34' E 014°57'0 0.0
2018-Feb-19 20:00N 68°34' E 014°57'0 0.0
2018-Feb-19 19:30N 68°34' E 014°57'0 0.0
2018-Feb-19 19:00N 68°34' E 014°57'0 0.0
2018-Feb-19 18:30N 68°34' E 014°57'0 0.0
2018-Feb-19 18:00N 68°34' E 014°57'0 0.0
2018-Feb-19 17:30N 68°34' E 014°57'0 0.0
2018-Feb-19 17:00N 68°34' E 014°57'0 0.0
2018-Feb-19 16:28N 68°34' E 014°57'0 0.0
2018-Feb-19 16:00N 68°34' E 014°57'0 0.0
2018-Feb-19 15:30N 68°34' E 014°57'0 0.0
2018-Feb-19 15:00N 68°34' E 014°57'0 0.0
2018-Feb-19 14:30N 68°34' E 014°57'0 0.0
2018-Feb-19 14:00N 68°34' E 014°57'0 0.0
2018-Feb-19 13:30N 68°34' E 014°57'0 0.1
2018-Feb-19 12:59N 68°35' E 014°57'0 0.0
2018-Feb-19 12:29N 68°35' E 014°57'0 0.0
2018-Feb-19 12:00N 68°35' E 014°57'0 0.0
2018-Feb-19 11:30N 68°35' E 014°57'0 0.0
2018-Feb-19 11:00N 68°35' E 014°57'0 0.0
2018-Feb-19 10:30N 68°35' E 014°57'0 0.0
2018-Feb-19 10:00N 68°35' E 014°57'1 1.6
2018-Feb-19 09:30N 68°34' E 014°55'0 0.0
2018-Feb-19 09:00N 68°34' E 014°55'0 0.0
2018-Feb-19 08:30N 68°34' E 014°55'0 0.0
2018-Feb-19 08:00N 68°34' E 014°55'0 0.0
2018-Feb-19 07:30N 68°34' E 014°55'0 0.0
2018-Feb-19 07:01N 68°34' E 014°55'0 0.0
2018-Feb-19 06:30N 68°34' E 014°55'0 0.0
2018-Feb-19 06:00N 68°34' E 014°55'0 0.0
2018-Feb-19 05:30N 68°34' E 014°55'0 0.0
2018-Feb-19 05:01N 68°34' E 014°55'0 0.0
2018-Feb-19 04:30N 68°34' E 014°55'0 0.0
2018-Feb-19 04:00N 68°34' E 014°55'0 0.0
2018-Feb-19 03:30N 68°34' E 014°55'0 0.0
2018-Feb-19 03:00N 68°34' E 014°55'0 0.0
2018-Feb-19 02:30N 68°34' E 014°55'0 0.0
2018-Feb-19 01:59N 68°34' E 014°55'0 0.0
2018-Feb-19 01:30N 68°34' E 014°55'0 0.0
2018-Feb-19 01:00N 68°34' E 014°55'0 0.0
2018-Feb-19 00:30N 68°34' E 014°55'0 0.0
2018-Feb-19 00:00N 68°34' E 014°55'0 0.0
2018-Feb-18 23:28N 68°34' E 014°55'0 0.0
2018-Feb-18 23:00N 68°34' E 014°55'0 0.0
2018-Feb-18 22:30N 68°34' E 014°55'0 0.0
2018-Feb-18 22:00N 68°34' E 014°55'0 0.0
2018-Feb-18 21:30N 68°34' E 014°55'0 0.0
2018-Feb-18 21:00N 68°34' E 014°55'0 0.0
2018-Feb-18 20:30N 68°34' E 014°55'0 0.0
2018-Feb-18 20:00N 68°34' E 014°55'0 0.0
2018-Feb-18 19:30N 68°34' E 014°55'0 0.0
2018-Feb-18 19:00N 68°34' E 014°55'0 0.0
2018-Feb-18 18:30N 68°34' E 014°55'0 0.0
2018-Feb-18 18:00N 68°34' E 014°55'0 0.0
2018-Feb-18 17:30N 68°34' E 014°55'0 0.0
2018-Feb-18 17:00N 68°34' E 014°55'0 0.0
2018-Feb-18 16:30N 68°34' E 014°55'0 0.0
2018-Feb-18 16:00N 68°34' E 014°55'0 0.0
2018-Feb-18 15:30N 68°34' E 014°55'0 0.0
2018-Feb-18 14:59N 68°34' E 014°55'0 0.0
2018-Feb-18 14:30N 68°34' E 014°55'0 0.0
2018-Feb-18 14:00N 68°34' E 014°55'0 0.0
2018-Feb-18 13:30N 68°34' E 014°55'0 0.0
2018-Feb-18 12:59N 68°34' E 014°55'0 0.0
2018-Feb-18 12:30N 68°34' E 014°55'0 0.0
2018-Feb-18 11:59N 68°34' E 014°55'0 0.0
2018-Feb-18 11:30N 68°34' E 014°55'0 0.0
2018-Feb-18 11:00N 68°34' E 014°55'0 0.0
2018-Feb-18 10:30N 68°34' E 014°55'0 0.0
2018-Feb-18 10:00N 68°34' E 014°55'0 0.0
2018-Feb-18 09:30N 68°34' E 014°55'0 0.0
2018-Feb-18 09:00N 68°34' E 014°55'0 0.0
2018-Feb-18 08:30N 68°34' E 014°55'0 0.0
2018-Feb-18 08:00N 68°34' E 014°55'0 0.0
2018-Feb-18 07:30N 68°34' E 014°55'0 0.0
2018-Feb-18 07:00N 68°34' E 014°55'0 0.0
2018-Feb-18 06:30N 68°34' E 014°55'0 0.0
2018-Feb-18 06:00N 68°34' E 014°55'0 0.0
2018-Feb-18 05:30N 68°34' E 014°55'0 0.0
2018-Feb-18 05:00N 68°34' E 014°55'0 0.0
2018-Feb-18 04:30N 68°34' E 014°55'0 0.0
2018-Feb-18 03:59N 68°34' E 014°55'0 0.0
2018-Feb-18 03:30N 68°34' E 014°55'0 0.0
2018-Feb-18 03:00N 68°34' E 014°55'0 0.0
2018-Feb-18 02:30N 68°34' E 014°55'0 0.0
2018-Feb-18 02:00N 68°34' E 014°55'0 0.0
2018-Feb-18 01:30N 68°34' E 014°55'0 0.0
2018-Feb-18 01:00N 68°34' E 014°55'0 0.0
2018-Feb-18 00:30N 68°34' E 014°55'0 0.0
2018-Feb-18 00:00N 68°34' E 014°55'0 0.0
2018-Feb-17 23:30N 68°34' E 014°55'0 0.0
2018-Feb-17 23:00N 68°34' E 014°55'0 0.0
2018-Feb-17 22:30N 68°34' E 014°55'0 0.0
2018-Feb-17 21:59N 68°34' E 014°55'0 0.0
2018-Feb-17 21:30N 68°34' E 014°55'0 0.0
2018-Feb-17 21:00N 68°34' E 014°55'0 0.0
2018-Feb-17 20:30N 68°34' E 014°55'0 0.0
2018-Feb-17 20:00N 68°34' E 014°55'0 0.0
2018-Feb-17 19:30N 68°34' E 014°55'0 0.0
2018-Feb-17 18:59N 68°34' E 014°55'0 0.0
2018-Feb-17 18:30N 68°34' E 014°55'0 0.0
2018-Feb-17 18:00N 68°34' E 014°55'0 0.0
2018-Feb-17 17:30N 68°34' E 014°55'0 0.0
2018-Feb-17 16:59N 68°34' E 014°55'0 0.0
2018-Feb-17 16:30N 68°34' E 014°55'0 0.0
2018-Feb-17 16:00N 68°34' E 014°55'0 0.0
2018-Feb-17 15:30N 68°34' E 014°55'0 0.0
2018-Feb-17 15:00N 68°34' E 014°55'0 0.0
2018-Feb-17 14:30N 68°34' E 014°55'0 0.0
2018-Feb-17 14:00N 68°34' E 014°55'0 0.0
2018-Feb-17 13:30N 68°34' E 014°55'0 0.0
2018-Feb-17 13:00N 68°34' E 014°55'0 0.0
2018-Feb-17 12:30N 68°34' E 014°55'0 0.0
2018-Feb-17 12:00N 68°34' E 014°55'0 0.0
2018-Feb-17 11:30N 68°34' E 014°55'0 0.0
2018-Feb-17 11:00N 68°34' E 014°55'0 0.0
2018-Feb-17 10:31N 68°34' E 014°55'0 0.0
2018-Feb-17 09:59N 68°34' E 014°55'0 0.0
2018-Feb-17 09:31N 68°34' E 014°55'0 0.0
2018-Feb-17 09:00N 68°34' E 014°55'0 0.0
2018-Feb-17 08:30N 68°34' E 014°55'0 0.0
2018-Feb-17 08:00N 68°34' E 014°55'0 0.0
2018-Feb-17 07:30N 68°34' E 014°55'0 0.0
2018-Feb-17 07:00N 68°34' E 014°55'0 0.0
2018-Feb-17 06:30N 68°34' E 014°55'0 0.0
2018-Feb-17 06:00N 68°34' E 014°55'0 0.0
2018-Feb-17 05:30N 68°34' E 014°55'0 0.0
2018-Feb-17 05:00N 68°34' E 014°55'0 0.0
2018-Feb-17 04:30N 68°34' E 014°55'0 0.0
2018-Feb-17 03:57N 68°34' E 014°55'0 0.0
2018-Feb-17 03:30N 68°34' E 014°55'0 0.0
2018-Feb-17 03:00N 68°34' E 014°55'0 0.0
2018-Feb-17 02:31N 68°34' E 014°55'0 0.0
2018-Feb-17 02:00N 68°34' E 014°55'0 0.0
2018-Feb-17 01:30N 68°34' E 014°55'0 0.0
2018-Feb-17 01:00N 68°34' E 014°55'0 0.0
2018-Feb-17 00:30N 68°34' E 014°55'0 0.0
2018-Feb-17 00:00N 68°34' E 014°55'0 0.0
2018-Feb-16 23:30N 68°34' E 014°55'0 0.0
2018-Feb-16 23:00N 68°34' E 014°55'0 0.0
2018-Feb-16 22:28N 68°34' E 014°55'0 0.0
2018-Feb-16 22:01N 68°34' E 014°55'0 0.0
2018-Feb-16 21:30N 68°34' E 014°55'0 0.0
2018-Feb-16 21:00N 68°34' E 014°55'0 0.0
2018-Feb-16 20:30N 68°34' E 014°55'0 0.0
2018-Feb-16 19:59N 68°34' E 014°55'0 0.0
2018-Feb-16 19:30N 68°34' E 014°55'0 0.0
2018-Feb-16 19:00N 68°34' E 014°55'0 0.0
2018-Feb-16 18:30N 68°34' E 014°55'0 0.0
2018-Feb-16 18:00N 68°34' E 014°55'0 0.0
2018-Feb-16 17:30N 68°34' E 014°55'0 0.0
2018-Feb-16 16:59N 68°34' E 014°55'0 0.0
2018-Feb-16 16:30N 68°34' E 014°55'0 0.0
2018-Feb-16 16:00N 68°34' E 014°55'0 0.0
2018-Feb-16 15:29N 68°34' E 014°55'0 0.0
2018-Feb-16 15:00N 68°34' E 014°55'0 0.0
2018-Feb-16 14:30N 68°34' E 014°55'0 0.0
2018-Feb-16 14:00N 68°34' E 014°55'0 0.0
2018-Feb-16 13:30N 68°34' E 014°55'0 0.0
2018-Feb-16 13:00N 68°34' E 014°55'0 0.0
2018-Feb-16 12:30N 68°34' E 014°55'0 0.0
2018-Feb-16 12:00N 68°34' E 014°55'0 0.0
2018-Feb-16 11:30N 68°34' E 014°55'0 0.0
2018-Feb-16 11:00N 68°34' E 014°55'0 0.0
2018-Feb-16 10:30N 68°34' E 014°55'0 0.0
2018-Feb-16 10:00N 68°34' E 014°55'0 0.0
2018-Feb-16 09:30N 68°34' E 014°55'0 0.0
2018-Feb-16 09:00N 68°34' E 014°55'0 0.0
2018-Feb-16 08:30N 68°34' E 014°55'0 0.0
2018-Feb-16 08:00N 68°34' E 014°55'0 0.0
2018-Feb-16 07:30N 68°34' E 014°55'0 0.0
2018-Feb-16 07:00N 68°34' E 014°55'0 0.0
2018-Feb-16 06:30N 68°34' E 014°55'0 0.0
2018-Feb-16 06:00N 68°34' E 014°55'0 0.0
2018-Feb-16 05:29N 68°34' E 014°55'0 0.0
2018-Feb-16 04:59N 68°34' E 014°55'0 0.0
2018-Feb-16 04:29N 68°34' E 014°55'0 0.0
2018-Feb-16 04:00N 68°34' E 014°55'0 0.0
2018-Feb-16 03:28N 68°34' E 014°55'0 0.0
2018-Feb-16 03:00N 68°34' E 014°55'0 0.0
2018-Feb-16 02:30N 68°34' E 014°55'0 0.0
2018-Feb-16 02:00N 68°34' E 014°55'0 0.0
2018-Feb-16 01:30N 68°34' E 014°55'0 0.0
2018-Feb-16 01:00N 68°34' E 014°55'0 0.0
2018-Feb-16 00:30N 68°34' E 014°55'0 0.0
2018-Feb-15 23:59N 68°34' E 014°55'0 0.0
2018-Feb-15 23:30N 68°34' E 014°55'0 0.0
2018-Feb-15 23:00N 68°34' E 014°55'0 0.0
2018-Feb-15 22:30N 68°34' E 014°55'0 0.0
2018-Feb-15 22:00N 68°34' E 014°55'0 0.0
2018-Feb-15 21:29N 68°34' E 014°55'0 0.0
2018-Feb-15 21:00N 68°34' E 014°55'0 0.0
2018-Feb-15 20:30N 68°34' E 014°55'0 0.0
2018-Feb-15 19:59N 68°34' E 014°55'0 0.0
2018-Feb-15 19:30N 68°34' E 014°55'0 0.0
2018-Feb-15 19:00N 68°34' E 014°55'0 0.0
2018-Feb-15 18:30N 68°34' E 014°55'0 0.0
2018-Feb-15 18:00N 68°34' E 014°55'0 0.0
2018-Feb-15 17:29N 68°34' E 014°55'0 0.0
2018-Feb-15 17:00N 68°34' E 014°55'0 0.0
2018-Feb-15 16:30N 68°34' E 014°55'0 0.0
2018-Feb-15 16:00N 68°34' E 014°55'1 1.7
2018-Feb-15 15:30N 68°34' E 014°57'3 5.1
2018-Feb-15 15:00N 68°35' E 015°04'610.9
2018-Feb-15 14:30N 68°38' E 015°17'510.3
2018-Feb-15 14:00N 68°41' E 015°26'5 9.7
2018-Feb-15 13:30N 68°46' E 015°26'610.7
2018-Feb-15 12:59N 68°51' E 015°30'610.8
2018-Feb-15 12:28N 68°57' E 015°36'4 9.1
2018-Feb-15 12:00N 68°59' E 015°47'611.0
2018-Feb-15 11:30N 68°59' E 016°02'611.2
2018-Feb-15 11:00N 68°60' E 016°17'510.8
2018-Feb-15 10:30N 68°58' E 016°32'610.9
2018-Feb-15 10:00N 68°59' E 016°47'611.1
2018-Feb-15 09:30N 68°59' E 017°02'511.0
2018-Feb-15 09:00N 69°01' E 017°17'610.9
2018-Feb-15 08:29N 69°06' E 017°27'1 3.0
2018-Feb-15 08:00N 69°05' E 017°31'5 9.1
2018-Feb-15 07:30N 69°09' E 017°39'0 0.1
2018-Feb-15 06:59N 69°09' E 017°39'0 0.3
2018-Feb-15 06:30N 69°09' E 017°40'510.6
2018-Feb-15 06:00N 69°10' E 017°54'4 8.0
2018-Feb-15 05:30N 69°14' E 017°58'510.4
2018-Feb-15 04:59N 69°19' E 017°59'5 9.6
2018-Feb-15 04:30N 69°23' E 018°05'510.4
2018-Feb-15 04:00N 69°28' E 018°08'510.9
2018-Feb-15 03:30N 69°31' E 018°22'611.3
2018-Feb-15 03:00N 69°33' E 018°37'611.7
2018-Feb-15 02:30N 69°36' E 018°51'510.9
2018-Feb-15 02:00N 69°40' E 019°00'510.8
2018-Feb-15 01:30N 69°45' E 019°07'510.6
2018-Feb-15 01:00N 69°48' E 019°20'511.0
2018-Feb-15 00:30N 69°50' E 019°35'510.8
2018-Feb-15 00:00N 69°52' E 019°49'510.7
2018-Feb-14 23:30N 69°55' E 020°01'510.8
2018-Feb-14 23:00N 69°59' E 020°14'510.2
2018-Feb-14 22:30N 70°00' E 020°28'510.3
2018-Feb-14 22:00N 70°02' E 020°42'610.5
2018-Feb-14 21:28N 70°04' E 020°58'510.6
2018-Feb-14 21:00N 70°03' E 021°13'510.5
2018-Feb-14 20:30N 70°01' E 021°27'510.6
2018-Feb-14 20:00N 69°57' E 021°35'5 9.6
2018-Feb-14 19:29N 69°53' E 021°44'0 0.0
2018-Feb-14 18:55N 69°53' E 021°44'0 0.1
2018-Feb-14 17:34N 69°53' E 021°44'1 8.0
2018-Feb-14 17:23N 69°54' E 021°41'410.4
2018-Feb-14 17:00N 69°57' E 021°35'510.6
2018-Feb-14 16:30N 70°02' E 021°25'510.2
2018-Feb-14 15:59N 70°00' E 021°11'511.0
2018-Feb-14 15:29N 69°57' E 020°58'510.6
2018-Feb-14 15:00N 69°53' E 020°47'0 0.1
2018-Feb-14 14:30N 69°53' E 020°46'1 1.5
2018-Feb-14 14:00N 69°54' E 020°46'  
Track history (hours):
 
Tides and Currents Weather Stations Pressure Air Temp Water Temp Dewpoint Dewpoint Depression Visibility Wind Speed Wind Dir Waves Ship Positions

Orion Explorer

Last reported at 2018-Feb-24 13:30 UTC. Time now 2018-Feb-24 13:56 UTC.
Position N 70°13' E 021°08'.

Length 59 m; draft 4.5 m.

Type: Cargo ship. MMSI: 259496000.

Date/timePositionNaut miles runAvg speedWind from/ knotsBaromVisibWave heightAir tempDewpointWater temp
2018-Feb-24 13:30N 70°13' E 021°08'510.8
2018-Feb-24 13:00N 70°17' E 021°20'611.1
2018-Feb-24 12:30N 70°21' E 021°32'510.5
2018-Feb-24 12:00N 70°24' E 021°44'611.0
2018-Feb-24 11:30N 70°21' E 021°60'611.2
2018-Feb-24 10:58N 70°19' E 022°15'511.5
2018-Feb-24 10:30N 70°16' E 022°29'611.5
2018-Feb-24 10:00N 70°15' E 022°46'3 5.6
2018-Feb-24 09:30N 70°15' E 022°54'1 1.6
2018-Feb-24 09:00N 70°14' E 022°55'511.0
2018-Feb-24 08:30N 70°14' E 023°11'2 4.1
2018-Feb-24 08:00N 70°14' E 023°17'0 0.0
2018-Feb-24 07:30N 70°14' E 023°17'0 0.0
2018-Feb-24 07:00N 70°14' E 023°17'0 0.0
2018-Feb-24 06:30N 70°14' E 023°17'1 2.2
2018-Feb-24 06:00N 70°14' E 023°20'0 0.1
2018-Feb-24 05:30N 70°14' E 023°20'3 6.7
2018-Feb-24 05:01N 70°17' E 023°19'510.6
2018-Feb-24 04:30N 70°21' E 023°28'510.2
2018-Feb-24 04:00N 70°25' E 023°38'510.4
2018-Feb-24 03:30N 70°29' E 023°48'510.8
2018-Feb-24 03:00N 70°32' E 024°02'610.7
2018-Feb-24 02:29N 70°37' E 024°10'510.7
2018-Feb-24 02:00N 70°42' E 024°11'610.7
2018-Feb-24 01:29N 70°48' E 024°12'510.6
2018-Feb-24 01:00N 70°52' E 024°18'511.0
2018-Feb-24 00:30N 70°57' E 024°25'510.6
2018-Feb-24 00:00N 71°02' E 024°35'611.5
2018-Feb-23 23:30N 71°00' E 024°51'611.2
2018-Feb-23 23:00N 70°59' E 025°08'510.9
2018-Feb-23 22:30N 70°58' E 025°25'611.2
2018-Feb-23 22:01N 70°55' E 025°39'510.5
2018-Feb-23 21:30N 70°54' E 025°55'510.3
2018-Feb-23 21:00N 70°49' E 025°53'610.8
2018-Feb-23 20:29N 70°46' E 025°39'1 1.3
2018-Feb-23 20:00N 70°45' E 025°38'1 1.5
2018-Feb-23 19:30N 70°46' E 025°39'610.8
2018-Feb-23 19:00N 70°49' E 025°53'510.3
2018-Feb-23 18:29N 70°54' E 025°54'610.8
2018-Feb-23 17:59N 70°59' E 025°45'0 0.2
2018-Feb-23 17:30N 70°59' E 025°45'2 3.8
2018-Feb-23 17:00N 70°57' E 025°45'510.0
2018-Feb-23 16:30N 70°56' E 025°30'611.4
2018-Feb-23 16:00N 70°59' E 025°15'510.8
2018-Feb-23 15:30N 70°59' E 024°59'510.6
2018-Feb-23 15:00N 71°01' E 024°42'4 7.8
2018-Feb-23 14:30N 70°59' E 024°31'510.8
2018-Feb-23 14:00N 70°54' E 024°31'5 9.2
2018-Feb-23 13:30N 70°50' E 024°27'0 0.0
2018-Feb-23 13:00N 70°50' E 024°27'0 0.6
2018-Feb-23 12:30N 70°50' E 024°27'4 8.2
2018-Feb-23 12:00N 70°53' E 024°20'510.0
2018-Feb-23 11:30N 70°50' E 024°06'510.6
2018-Feb-23 11:00N 70°48' E 023°52'510.7
2018-Feb-23 10:30N 70°45' E 023°38'510.6
2018-Feb-23 10:00N 70°40' E 023°34'2 4.7
2018-Feb-23 09:29N 70°38' E 023°39'0 0.0
2018-Feb-23 09:00N 70°38' E 023°39'0 0.0
2018-Feb-23 08:30N 70°38' E 023°39'4 7.4
2018-Feb-23 08:01N 70°38' E 023°28'510.8
2018-Feb-23 07:30N 70°36' E 023°13'611.6
2018-Feb-23 07:00N 70°32' E 023°00'611.4
2018-Feb-23 06:30N 70°30' E 022°44'611.0
2018-Feb-23 06:00N 70°28' E 022°29'510.4
2018-Feb-23 05:30N 70°27' E 022°13'510.9
2018-Feb-23 05:00N 70°25' E 021°58'511.0
2018-Feb-23 04:30N 70°24' E 021°42'611.0
2018-Feb-23 04:00N 70°20' E 021°30'611.2
2018-Feb-23 03:30N 70°16' E 021°18'5 9.8
2018-Feb-23 03:00N 70°12' E 021°10'510.9
2018-Feb-23 02:30N 70°08' E 021°20'510.9
2018-Feb-23 01:59N 70°04' E 021°32'610.8
2018-Feb-23 01:26N 70°01' E 021°46'4 9.6
2018-Feb-23 01:01N 69°57' E 021°53'0 0.0
2018-Feb-23 00:26N 69°57' E 021°53'0 0.0
2018-Feb-22 23:59N 69°57' E 021°53'1 1.4
2018-Feb-22 23:30N 69°58' E 021°51'510.6
2018-Feb-22 23:01N 69°60' E 021°37'510.4
2018-Feb-22 22:30N 70°02' E 021°23'2 4.5
2018-Feb-22 22:00N 70°03' E 021°17'0 0.0
2018-Feb-22 21:30N 70°03' E 021°17'0 0.0
2018-Feb-22 21:00N 70°03' E 021°17'5 9.0
2018-Feb-22 20:30N 69°59' E 021°07'510.8
2018-Feb-22 20:00N 69°56' E 020°55'4 7.7
2018-Feb-22 19:30N 69°53' E 020°46'0 0.3
2018-Feb-22 19:00N 69°54' E 020°46'2 4.6
2018-Feb-22 18:30N 69°52' E 020°42'0 0.0
2018-Feb-22 18:00N 69°52' E 020°42'2 4.6
2018-Feb-22 17:30N 69°50' E 020°44'1 1.1
2018-Feb-22 16:53N 69°49' E 020°43'2 2.0
2018-Feb-22 15:52N 69°48' E 020°38'3 8.1
2018-Feb-22 15:30N 69°48' E 020°30'510.6
2018-Feb-22 15:00N 69°53' E 020°25'510.6
2018-Feb-22 14:30N 69°58' E 020°20'5 9.4
2018-Feb-22 14:01N 69°57' E 020°07'510.3
2018-Feb-22 13:30N 69°54' E 019°55'510.7
2018-Feb-22 13:00N 69°51' E 019°42'510.6
2018-Feb-22 12:30N 69°49' E 019°28'510.8
2018-Feb-22 12:00N 69°46' E 019°13'510.4
2018-Feb-22 11:30N 69°43' E 019°03'510.7
2018-Feb-22 10:59N 69°38' E 018°56'510.8
2018-Feb-22 10:30N 69°34' E 018°46'510.6
2018-Feb-22 09:59N 69°32' E 018°32'510.6
2018-Feb-22 09:30N 69°30' E 018°18'510.3
2018-Feb-22 09:00N 69°28' E 018°04'0 0.2
2018-Feb-22 08:30N 69°28' E 018°04'0 0.0
2018-Feb-22 07:59N 69°28' E 018°04'3 6.3
2018-Feb-22 07:30N 69°25' E 018°07'510.5
2018-Feb-22 07:00N 69°20' E 018°04'5 9.8
2018-Feb-22 06:30N 69°16' E 017°58'5 9.7
2018-Feb-22 06:00N 69°11' E 018°01'510.3
2018-Feb-22 05:30N 69°09' E 017°48'510.5
2018-Feb-22 05:00N 69°07' E 017°34'510.3
2018-Feb-22 04:29N 69°04' E 017°22'510.5
2018-Feb-22 04:00N 68°60' E 017°13'510.5
2018-Feb-22 03:30N 68°56' E 017°02'510.5
2018-Feb-22 03:00N 68°53' E 016°51'510.6
2018-Feb-22 02:30N 68°50' E 016°39'3 5.3
2018-Feb-22 01:59N 68°48' E 016°34'0 0.0
2018-Feb-22 01:30N 68°48' E 016°34'0 0.0
2018-Feb-22 01:00N 68°48' E 016°34'0 0.6
2018-Feb-22 00:29N 68°48' E 016°34'4 7.7
2018-Feb-22 00:00N 68°52' E 016°30'510.2
2018-Feb-21 23:30N 68°55' E 016°20'510.0
2018-Feb-21 23:00N 68°57' E 016°07'510.5
2018-Feb-21 22:30N 68°59' E 015°53'510.4
2018-Feb-21 22:00N 68°58' E 015°39'510.1
2018-Feb-21 21:30N 68°53' E 015°33'510.6
2018-Feb-21 21:00N 68°49' E 015°26'510.7
2018-Feb-21 20:30N 68°43' E 015°25'5 9.7
2018-Feb-21 20:00N 68°39' E 015°22'510.5
2018-Feb-21 19:30N 68°36' E 015°10'5 9.7
2018-Feb-21 19:00N 68°35' E 014°57'0 0.3
2018-Feb-21 18:30N 68°34' E 014°57'0 0.0
2018-Feb-21 18:00N 68°34' E 014°57'0 0.0
2018-Feb-21 17:30N 68°34' E 014°57'0 0.0
2018-Feb-21 17:00N 68°34' E 014°57'0 0.0
2018-Feb-21 16:30N 68°34' E 014°57'0 0.0
2018-Feb-21 16:00N 68°34' E 014°57'5 9.8
2018-Feb-21 15:31N 68°36' E 015°10'611.0
2018-Feb-21 15:00N 68°39' E 015°22'5 9.4
2018-Feb-21 14:29N 68°44' E 015°25'510.9
2018-Feb-21 14:01N 68°49' E 015°27'610.9
2018-Feb-21 13:29N 68°54' E 015°34'5 9.4
2018-Feb-21 13:00N 68°58' E 015°40'510.0
2018-Feb-21 12:30N 68°60' E 015°54'510.9
2018-Feb-21 12:00N 69°03' E 016°06'610.9
2018-Feb-21 11:30N 69°06' E 016°20'511.0
2018-Feb-21 11:00N 69°08' E 016°33'510.9
2018-Feb-21 10:30N 69°11' E 016°46'510.8
2018-Feb-21 09:59N 69°15' E 016°57'2 3.4
2018-Feb-21 09:30N 69°15' E 017°02'0 0.0
2018-Feb-21 09:00N 69°15' E 017°02'0 0.0
2018-Feb-21 08:30N 69°15' E 017°02'0 0.0
2018-Feb-21 08:00N 69°15' E 017°02'4 6.9
2018-Feb-21 07:29N 69°14' E 016°52'510.8
2018-Feb-21 06:59N 69°08' E 016°48'511.1
2018-Feb-21 06:30N 69°03' E 016°45'510.4
2018-Feb-21 06:00N 69°00' E 016°57'510.9
2018-Feb-21 05:30N 69°00' E 017°12'510.6
2018-Feb-21 05:00N 69°04' E 017°22'510.8
2018-Feb-21 04:30N 69°07' E 017°34'2 4.9
2018-Feb-21 04:00N 69°09' E 017°39'0 0.4
2018-Feb-21 03:30N 69°09' E 017°39'510.7
2018-Feb-21 03:00N 69°04' E 017°34'4 8.5
2018-Feb-21 02:30N 69°00' E 017°27'0 0.0
2018-Feb-21 02:00N 69°00' E 017°27'0 0.0
2018-Feb-21 01:30N 69°00' E 017°27'4 9.1
2018-Feb-21 01:01N 68°56' E 017°26'5 9.3
2018-Feb-21 00:30N 68°51' E 017°28'510.6
2018-Feb-21 00:00N 68°48' E 017°18'510.8
2018-Feb-20 23:31N 68°43' E 017°09'0 0.3
2018-Feb-20 23:00N 68°43' E 017°09'2 5.0
2018-Feb-20 22:30N 68°44' E 017°02'3 5.4
2018-Feb-20 22:00N 68°44' E 016°54'0 0.0
2018-Feb-20 21:30N 68°44' E 016°54'2 4.4
2018-Feb-20 21:00N 68°43' E 016°49'510.2
2018-Feb-20 20:30N 68°48' E 016°46'510.5
2018-Feb-20 20:00N 68°53' E 016°45'3 5.7
2018-Feb-20 19:30N 68°56' E 016°42'0 0.6
2018-Feb-20 19:00N 68°56' E 016°42'1 1.2
2018-Feb-20 18:30N 68°56' E 016°43'1 1.1
2018-Feb-20 18:00N 68°56' E 016°42'4 8.0
2018-Feb-20 17:30N 68°53' E 016°36'5 9.5
2018-Feb-20 17:01N 68°54' E 016°23'510.0
2018-Feb-20 16:30N 68°57' E 016°12'510.3
2018-Feb-20 16:00N 68°58' E 015°59'510.4
2018-Feb-20 15:30N 68°59' E 015°44'5 9.5
2018-Feb-20 14:59N 68°55' E 015°35'510.4
2018-Feb-20 14:30N 68°51' E 015°29'510.6
2018-Feb-20 14:00N 68°45' E 015°26'611.5
2018-Feb-20 13:30N 68°40' E 015°26'2 4.1
2018-Feb-20 13:00N 68°38' E 015°29'0 0.0
2018-Feb-20 12:29N 68°38' E 015°29'0 0.2
2018-Feb-20 12:00N 68°38' E 015°29'5 9.4
2018-Feb-20 11:30N 68°36' E 015°17'510.5
2018-Feb-20 11:00N 68°34' E 015°03'2 4.6
2018-Feb-20 10:30N 68°34' E 014°57'0 0.0
2018-Feb-20 10:00N 68°34' E 014°57'0 0.0
2018-Feb-20 09:30N 68°34' E 014°57'0 0.0
2018-Feb-20 09:00N 68°34' E 014°57'0 0.0
2018-Feb-20 08:29N 68°34' E 014°57'0 0.0
2018-Feb-20 08:00N 68°34' E 014°57'0 0.0
2018-Feb-20 07:30N 68°34' E 014°57'0 0.0
2018-Feb-20 07:00N 68°34' E 014°57'0 0.0
2018-Feb-20 06:30N 68°34' E 014°57'0 0.0
2018-Feb-20 06:00N 68°34' E 014°57'0 0.0
2018-Feb-20 05:30N 68°34' E 014°57'0 0.0
2018-Feb-20 04:59N 68°34' E 014°57'0 0.0
2018-Feb-20 04:30N 68°34' E 014°57'0 0.0
2018-Feb-20 04:00N 68°34' E 014°57'0 0.0
2018-Feb-20 03:28N 68°34' E 014°57'0 0.0
2018-Feb-20 03:00N 68°34' E 014°57'0 0.0
2018-Feb-20 02:30N 68°34' E 014°57'0 0.0
2018-Feb-20 02:00N 68°34' E 014°57'0 0.0
2018-Feb-20 01:30N 68°34' E 014°57'0 0.0
2018-Feb-20 01:00N 68°34' E 014°57'0 0.0
2018-Feb-20 00:29N 68°34' E 014°57'0 0.0
2018-Feb-20 00:00N 68°34' E 014°57'0 0.0
2018-Feb-19 23:30N 68°34' E 014°57'0 0.0
2018-Feb-19 22:59N 68°34' E 014°57'0 0.0
2018-Feb-19 22:30N 68°34' E 014°57'0 0.0
2018-Feb-19 22:00N 68°34' E 014°57'0 0.0
2018-Feb-19 21:30N 68°34' E 014°57'0 0.0
2018-Feb-19 21:00N 68°34' E 014°57'0 0.0
2018-Feb-19 20:30N 68°34' E 014°57'0 0.0
2018-Feb-19 20:00N 68°34' E 014°57'0 0.0
2018-Feb-19 19:30N 68°34' E 014°57'0 0.0
2018-Feb-19 19:00N 68°34' E 014°57'0 0.0
2018-Feb-19 18:30N 68°34' E 014°57'0 0.0
2018-Feb-19 18:00N 68°34' E 014°57'0 0.0
2018-Feb-19 17:30N 68°34' E 014°57'0 0.0
2018-Feb-19 17:00N 68°34' E 014°57'0 0.0
2018-Feb-19 16:28N 68°34' E 014°57'0 0.0
2018-Feb-19 16:00N 68°34' E 014°57'0 0.0
2018-Feb-19 15:30N 68°34' E 014°57'0 0.0
2018-Feb-19 15:00N 68°34' E 014°57'0 0.0
2018-Feb-19 14:30N 68°34' E 014°57'0 0.0
2018-Feb-19 14:00N 68°34' E 014°57'0 0.0
2018-Feb-19 13:30N 68°34' E 014°57'0 0.1
2018-Feb-19 12:59N 68°35' E 014°57'0 0.0
2018-Feb-19 12:29N 68°35' E 014°57'0 0.0
2018-Feb-19 12:00N 68°35' E 014°57'0 0.0
2018-Feb-19 11:30N 68°35' E 014°57'0 0.0
2018-Feb-19 11:00N 68°35' E 014°57'0 0.0
2018-Feb-19 10:30N 68°35' E 014°57'0 0.0
2018-Feb-19 10:00N 68°35' E 014°57'1 1.6
2018-Feb-19 09:30N 68°34' E 014°55'0 0.0
2018-Feb-19 09:00N 68°34' E 014°55'0 0.0
2018-Feb-19 08:30N 68°34' E 014°55'0 0.0
2018-Feb-19 08:00N 68°34' E 014°55'0 0.0
2018-Feb-19 07:30N 68°34' E 014°55'0 0.0
2018-Feb-19 07:01N 68°34' E 014°55'0 0.0
2018-Feb-19 06:30N 68°34' E 014°55'0 0.0
2018-Feb-19 06:00N 68°34' E 014°55'0 0.0
2018-Feb-19 05:30N 68°34' E 014°55'0 0.0
2018-Feb-19 05:01N 68°34' E 014°55'0 0.0
2018-Feb-19 04:30N 68°34' E 014°55'0 0.0
2018-Feb-19 04:00N 68°34' E 014°55'0 0.0
2018-Feb-19 03:30N 68°34' E 014°55'0 0.0
2018-Feb-19 03:00N 68°34' E 014°55'0 0.0
2018-Feb-19 02:30N 68°34' E 014°55'0 0.0
2018-Feb-19 01:59N 68°34' E 014°55'0 0.0
2018-Feb-19 01:30N 68°34' E 014°55'0 0.0
2018-Feb-19 01:00N 68°34' E 014°55'0 0.0
2018-Feb-19 00:30N 68°34' E 014°55'0 0.0
2018-Feb-19 00:00N 68°34' E 014°55'0 0.0
2018-Feb-18 23:28N 68°34' E 014°55'0 0.0
2018-Feb-18 23:00N 68°34' E 014°55'0 0.0
2018-Feb-18 22:30N 68°34' E 014°55'0 0.0
2018-Feb-18 22:00N 68°34' E 014°55'0 0.0
2018-Feb-18 21:30N 68°34' E 014°55'0 0.0
2018-Feb-18 21:00N 68°34' E 014°55'0 0.0
2018-Feb-18 20:30N 68°34' E 014°55'0 0.0
2018-Feb-18 20:00N 68°34' E 014°55'0 0.0
2018-Feb-18 19:30N 68°34' E 014°55'0 0.0
2018-Feb-18 19:00N 68°34' E 014°55'0 0.0
2018-Feb-18 18:30N 68°34' E 014°55'0 0.0
2018-Feb-18 18:00N 68°34' E 014°55'0 0.0
2018-Feb-18 17:30N 68°34' E 014°55'0 0.0
2018-Feb-18 17:00N 68°34' E 014°55'0 0.0
2018-Feb-18 16:30N 68°34' E 014°55'0 0.0
2018-Feb-18 16:00N 68°34' E 014°55'0 0.0
2018-Feb-18 15:30N 68°34' E 014°55'0 0.0
2018-Feb-18 14:59N 68°34' E 014°55'0 0.0
2018-Feb-18 14:30N 68°34' E 014°55'0 0.0
2018-Feb-18 14:00N 68°34' E 014°55'0 0.0
2018-Feb-18 13:30N 68°34' E 014°55'0 0.0
2018-Feb-18 12:59N 68°34' E 014°55'0 0.0
2018-Feb-18 12:30N 68°34' E 014°55'0 0.0
2018-Feb-18 11:59N 68°34' E 014°55'0 0.0
2018-Feb-18 11:30N 68°34' E 014°55'0 0.0
2018-Feb-18 11:00N 68°34' E 014°55'0 0.0
2018-Feb-18 10:30N 68°34' E 014°55'0 0.0
2018-Feb-18 10:00N 68°34' E 014°55'0 0.0
2018-Feb-18 09:30N 68°34' E 014°55'0 0.0
2018-Feb-18 09:00N 68°34' E 014°55'0 0.0
2018-Feb-18 08:30N 68°34' E 014°55'0 0.0
2018-Feb-18 08:00N 68°34' E 014°55'0 0.0
2018-Feb-18 07:30N 68°34' E 014°55'0 0.0
2018-Feb-18 07:00N 68°34' E 014°55'0 0.0
2018-Feb-18 06:30N 68°34' E 014°55'0 0.0
2018-Feb-18 06:00N 68°34' E 014°55'0 0.0
2018-Feb-18 05:30N 68°34' E 014°55'0 0.0
2018-Feb-18 05:00N 68°34' E 014°55'0 0.0
2018-Feb-18 04:30N 68°34' E 014°55'0 0.0
2018-Feb-18 03:59N 68°34' E 014°55'0 0.0
2018-Feb-18 03:30N 68°34' E 014°55'0 0.0
2018-Feb-18 03:00N 68°34' E 014°55'0 0.0
2018-Feb-18 02:30N 68°34' E 014°55'0 0.0
2018-Feb-18 02:00N 68°34' E 014°55'0 0.0
2018-Feb-18 01:30N 68°34' E 014°55'0 0.0
2018-Feb-18 01:00N 68°34' E 014°55'0 0.0
2018-Feb-18 00:30N 68°34' E 014°55'0 0.0
2018-Feb-18 00:00N 68°34' E 014°55'0 0.0
2018-Feb-17 23:30N 68°34' E 014°55'0 0.0
2018-Feb-17 23:00N 68°34' E 014°55'0 0.0
2018-Feb-17 22:30N 68°34' E 014°55'0 0.0
2018-Feb-17 21:59N 68°34' E 014°55'0 0.0
2018-Feb-17 21:30N 68°34' E 014°55'0 0.0
2018-Feb-17 21:00N 68°34' E 014°55'0 0.0
2018-Feb-17 20:30N 68°34' E 014°55'0 0.0
2018-Feb-17 20:00N 68°34' E 014°55'0 0.0
2018-Feb-17 19:30N 68°34' E 014°55'0 0.0
2018-Feb-17 18:59N 68°34' E 014°55'0 0.0
2018-Feb-17 18:30N 68°34' E 014°55'0 0.0
2018-Feb-17 18:00N 68°34' E 014°55'0 0.0
2018-Feb-17 17:30N 68°34' E 014°55'0 0.0
2018-Feb-17 16:59N 68°34' E 014°55'0 0.0
2018-Feb-17 16:30N 68°34' E 014°55'0 0.0
2018-Feb-17 16:00N 68°34' E 014°55'0 0.0
2018-Feb-17 15:30N 68°34' E 014°55'0 0.0
2018-Feb-17 15:00N 68°34' E 014°55'0 0.0
2018-Feb-17 14:30N 68°34' E 014°55'0 0.0
2018-Feb-17 14:00N 68°34' E 014°55'0 0.0
2018-Feb-17 13:30N 68°34' E 014°55'0 0.0
2018-Feb-17 13:00N 68°34' E 014°55'0 0.0
2018-Feb-17 12:30N 68°34' E 014°55'0 0.0
2018-Feb-17 12:00N 68°34' E 014°55'0 0.0
2018-Feb-17 11:30N 68°34' E 014°55'0 0.0
2018-Feb-17 11:00N 68°34' E 014°55'0 0.0
2018-Feb-17 10:31N 68°34' E 014°55'0 0.0
2018-Feb-17 09:59N 68°34' E 014°55'0 0.0
2018-Feb-17 09:31N 68°34' E 014°55'0 0.0
2018-Feb-17 09:00N 68°34' E 014°55'0 0.0
2018-Feb-17 08:30N 68°34' E 014°55'0 0.0
2018-Feb-17 08:00N 68°34' E 014°55'0 0.0
2018-Feb-17 07:30N 68°34' E 014°55'0 0.0
2018-Feb-17 07:00N 68°34' E 014°55'0 0.0
2018-Feb-17 06:30N 68°34' E 014°55'0 0.0
2018-Feb-17 06:00N 68°34' E 014°55'0 0.0
2018-Feb-17 05:30N 68°34' E 014°55'0 0.0
2018-Feb-17 05:00N 68°34' E 014°55'0 0.0
2018-Feb-17 04:30N 68°34' E 014°55'0 0.0
2018-Feb-17 03:57N 68°34' E 014°55'0 0.0
2018-Feb-17 03:30N 68°34' E 014°55'0 0.0
2018-Feb-17 03:00N 68°34' E 014°55'0 0.0
2018-Feb-17 02:31N 68°34' E 014°55'0 0.0
2018-Feb-17 02:00N 68°34' E 014°55'0 0.0
2018-Feb-17 01:30N 68°34' E 014°55'0 0.0
2018-Feb-17 01:00N 68°34' E 014°55'0 0.0
2018-Feb-17 00:30N 68°34' E 014°55'0 0.0
2018-Feb-17 00:00N 68°34' E 014°55'0 0.0
2018-Feb-16 23:30N 68°34' E 014°55'0 0.0
2018-Feb-16 23:00N 68°34' E 014°55'0 0.0
2018-Feb-16 22:28N 68°34' E 014°55'0 0.0
2018-Feb-16 22:01N 68°34' E 014°55'0 0.0
2018-Feb-16 21:30N 68°34' E 014°55'0 0.0
2018-Feb-16 21:00N 68°34' E 014°55'0 0.0
2018-Feb-16 20:30N 68°34' E 014°55'0 0.0
2018-Feb-16 19:59N 68°34' E 014°55'0 0.0
2018-Feb-16 19:30N 68°34' E 014°55'0 0.0
2018-Feb-16 19:00N 68°34' E 014°55'0 0.0
2018-Feb-16 18:30N 68°34' E 014°55'0 0.0
2018-Feb-16 18:00N 68°34' E 014°55'0 0.0
2018-Feb-16 17:30N 68°34' E 014°55'0 0.0
2018-Feb-16 16:59N 68°34' E 014°55'0 0.0
2018-Feb-16 16:30N 68°34' E 014°55'0 0.0
2018-Feb-16 16:00N 68°34' E 014°55'0 0.0
2018-Feb-16 15:29N 68°34' E 014°55'0 0.0
2018-Feb-16 15:00N 68°34' E 014°55'0 0.0
2018-Feb-16 14:30N 68°34' E 014°55'0 0.0
2018-Feb-16 14:00N 68°34' E 014°55'0 0.0
2018-Feb-16 13:30N 68°34' E 014°55'0 0.0
2018-Feb-16 13:00N 68°34' E 014°55'0 0.0
2018-Feb-16 12:30N 68°34' E 014°55'0 0.0
2018-Feb-16 12:00N 68°34' E 014°55'0 0.0
2018-Feb-16 11:30N 68°34' E 014°55'0 0.0
2018-Feb-16 11:00N 68°34' E 014°55'0 0.0
2018-Feb-16 10:30N 68°34' E 014°55'0 0.0
2018-Feb-16 10:00N 68°34' E 014°55'0 0.0
2018-Feb-16 09:30N 68°34' E 014°55'0 0.0
2018-Feb-16 09:00N 68°34' E 014°55'0 0.0
2018-Feb-16 08:30N 68°34' E 014°55'0 0.0
2018-Feb-16 08:00N 68°34' E 014°55'0 0.0
2018-Feb-16 07:30N 68°34' E 014°55'0 0.0
2018-Feb-16 07:00N 68°34' E 014°55'0 0.0
2018-Feb-16 06:30N 68°34' E 014°55'0 0.0
2018-Feb-16 06:00N 68°34' E 014°55'0 0.0
2018-Feb-16 05:29N 68°34' E 014°55'0 0.0
2018-Feb-16 04:59N 68°34' E 014°55'0 0.0
2018-Feb-16 04:29N 68°34' E 014°55'0 0.0
2018-Feb-16 04:00N 68°34' E 014°55'0 0.0
2018-Feb-16 03:28N 68°34' E 014°55'0 0.0
2018-Feb-16 03:00N 68°34' E 014°55'0 0.0
2018-Feb-16 02:30N 68°34' E 014°55'0 0.0
2018-Feb-16 02:00N 68°34' E 014°55'0 0.0
2018-Feb-16 01:30N 68°34' E 014°55'0 0.0
2018-Feb-16 01:00N 68°34' E 014°55'0 0.0
2018-Feb-16 00:30N 68°34' E 014°55'0 0.0
2018-Feb-15 23:59N 68°34' E 014°55'0 0.0
2018-Feb-15 23:30N 68°34' E 014°55'0 0.0
2018-Feb-15 23:00N 68°34' E 014°55'0 0.0
2018-Feb-15 22:30N 68°34' E 014°55'0 0.0
2018-Feb-15 22:00N 68°34' E 014°55'0 0.0
2018-Feb-15 21:29N 68°34' E 014°55'0 0.0
2018-Feb-15 21:00N 68°34' E 014°55'0 0.0
2018-Feb-15 20:30N 68°34' E 014°55'0 0.0
2018-Feb-15 19:59N 68°34' E 014°55'0 0.0
2018-Feb-15 19:30N 68°34' E 014°55'0 0.0
2018-Feb-15 19:00N 68°34' E 014°55'0 0.0
2018-Feb-15 18:30N 68°34' E 014°55'0 0.0
2018-Feb-15 18:00N 68°34' E 014°55'0 0.0
2018-Feb-15 17:29N 68°34' E 014°55'0 0.0
2018-Feb-15 17:00N 68°34' E 014°55'0 0.0
2018-Feb-15 16:30N 68°34' E 014°55'0 0.0
2018-Feb-15 16:00N 68°34' E 014°55'1 1.7
2018-Feb-15 15:30N 68°34' E 014°57'3 5.1
2018-Feb-15 15:00N 68°35' E 015°04'610.9
2018-Feb-15 14:30N 68°38' E 015°17'510.3
2018-Feb-15 14:00N 68°41' E 015°26'5 9.7
2018-Feb-15 13:30N 68°46' E 015°26'610.7
2018-Feb-15 12:59N 68°51' E 015°30'610.8
2018-Feb-15 12:28N 68°57' E 015°36'4 9.1
2018-Feb-15 12:00N 68°59' E 015°47'611.0
2018-Feb-15 11:30N 68°59' E 016°02'611.2
2018-Feb-15 11:00N 68°60' E 016°17'510.8
2018-Feb-15 10:30N 68°58' E 016°32'610.9
2018-Feb-15 10:00N 68°59' E 016°47'611.1
2018-Feb-15 09:30N 68°59' E 017°02'511.0
2018-Feb-15 09:00N 69°01' E 017°17'610.9
2018-Feb-15 08:29N 69°06' E 017°27'1 3.0
2018-Feb-15 08:00N 69°05' E 017°31'5 9.1
2018-Feb-15 07:30N 69°09' E 017°39'0 0.1
2018-Feb-15 06:59N 69°09' E 017°39'0 0.3
2018-Feb-15 06:30N 69°09' E 017°40'510.6
2018-Feb-15 06:00N 69°10' E 017°54'4 8.0
2018-Feb-15 05:30N 69°14' E 017°58'510.4
2018-Feb-15 04:59N 69°19' E 017°59'5 9.6
2018-Feb-15 04:30N 69°23' E 018°05'510.4
2018-Feb-15 04:00N 69°28' E 018°08'510.9
2018-Feb-15 03:30N 69°31' E 018°22'611.3
2018-Feb-15 03:00N 69°33' E 018°37'611.7
2018-Feb-15 02:30N 69°36' E 018°51'510.9
2018-Feb-15 02:00N 69°40' E 019°00'510.8
2018-Feb-15 01:30N 69°45' E 019°07'510.6
2018-Feb-15 01:00N 69°48' E 019°20'511.0
2018-Feb-15 00:30N 69°50' E 019°35'510.8
2018-Feb-15 00:00N 69°52' E 019°49'510.7
2018-Feb-14 23:30N 69°55' E 020°01'510.8
2018-Feb-14 23:00N 69°59' E 020°14'510.2
2018-Feb-14 22:30N 70°00' E 020°28'510.3
2018-Feb-14 22:00N 70°02' E 020°42'610.5
2018-Feb-14 21:28N 70°04' E 020°58'510.6
2018-Feb-14 21:00N 70°03' E 021°13'510.5
2018-Feb-14 20:30N 70°01' E 021°27'510.6
2018-Feb-14 20:00N 69°57' E 021°35'5 9.6
2018-Feb-14 19:29N 69°53' E 021°44'0 0.0
2018-Feb-14 18:55N 69°53' E 021°44'0 0.1
2018-Feb-14 17:34N 69°53' E 021°44'1 8.0
2018-Feb-14 17:23N 69°54' E 021°41'410.4
2018-Feb-14 17:00N 69°57' E 021°35'510.6
2018-Feb-14 16:30N 70°02' E 021°25'510.2
2018-Feb-14 15:59N 70°00' E 021°11'511.0
2018-Feb-14 15:29N 69°57' E 020°58'510.6
2018-Feb-14 15:00N 69°53' E 020°47'0 0.1
2018-Feb-14 14:30N 69°53' E 020°46'1 1.5
2018-Feb-14 14:00N 69°54' E 020°46'  

Dump ship's entire track history